KDFW/DFW METAR and TAF weather

Enter ICAO airport designator
Station Type Date Time Source
KDFW METAR 2018/10/16 13:53 UTC NOAA

KDFW 161353Z 01012KT 2 1/2SM RA BR BKN009 OVC012 07/07 A3026 RMK AO2 SLP246 P0016 T00720067


Station Type Date Time Source
KDFW Decoded METAR 2018/10/16 13:53 UTC NOAA

DALLAS/FT. WORTH INTERNATIONAL AIRPORT , TX, United States (KDFW) 32-54N 097-02W 174M
Oct 16, 2018 - 09:53 AM EDT / 2018.10.16 1353 UTC
Wind: from the N (010 degrees) at 14 MPH (12 KT):0
Visibility: 2 1/2 mile(s):0
Sky conditions: overcast
Weather: rain; mist
Precipitation last hour: 0.16 inches
Temperature: 45.0 F (7.2 C)
Dew Point: 44.1 F (6.7 C)
Relative Humidity: 96%
Pressure (altimeter): 30.26 in. Hg (1024 hPa)
ob: KDFW 161353Z 01012KT 2 1/2SM RA BR BKN009 OVC012 07/07 A3026 RMK AO2 SLP246 P0016 T00720067
cycle: 14

Station Type Date Time Source
KDFW TAF 2018/10/16 12:24 UTC NOAA

TAF KDFW 161121Z 1612/1718 01014KT 4SM -RA BR BKN009 OVC035
FM161900 36015KT P6SM -SHRA BKN015 OVC030
FM171200 36010KT P6SM VCSH OVC025


Example: see airport list